sensor_id;sensor_type;location;lat;lon;timestamp;P1;durP1;ratioP1;P2;durP2;ratioP2
52180;SDS011;38158;53.338;6.514;2023-09-07T00:01:25;5.82;;;3.03;;
52180;SDS011;38158;53.338;6.514;2023-09-07T00:03:51;6.35;;;3.35;;
52180;SDS011;38158;53.338;6.514;2023-09-07T00:06:16;4.60;;;2.97;;
52180;SDS011;38158;53.338;6.514;2023-09-07T00:08:43;4.07;;;2.67;;
52180;SDS011;38158;53.338;6.514;2023-09-07T00:11:09;4.57;;;2.80;;
52180;SDS011;38158;53.338;6.514;2023-09-07T00:13:35;5.70;;;2.88;;
52180;SDS011;38158;53.338;6.514;2023-09-07T00:16:04;4.80;;;2.97;;
52180;SDS011;38158;53.338;6.514;2023-09-07T00:18:31;4.93;;;3.25;;
52180;SDS011;38158;53.338;6.514;2023-09-07T00:20:57;5.07;;;3.30;;
52180;SDS011;38158;53.338;6.514;2023-09-07T00:23:25;6.25;;;3.17;;
52180;SDS011;38158;53.338;6.514;2023-09-07T00:25:51;5.70;;;2.80;;
52180;SDS011;38158;53.338;6.514;2023-09-07T00:28:18;8.20;;;3.92;;
52180;SDS011;38158;53.338;6.514;2023-09-07T00:30:44;5.60;;;3.05;;
52180;SDS011;38158;53.338;6.514;2023-09-07T00:33:09;3.92;;;2.85;;
52180;SDS011;38158;53.338;6.514;2023-09-07T00:35:36;5.00;;;3.13;;
52180;SDS011;38158;53.338;6.514;2023-09-07T00:38:01;4.68;;;3.50;;
52180;SDS011;38158;53.338;6.514;2023-09-07T00:40:28;5.30;;;3.37;;
52180;SDS011;38158;53.338;6.514;2023-09-07T00:42:54;5.18;;;2.83;;
52180;SDS011;38158;53.338;6.514;2023-09-07T00:45:20;5.05;;;3.22;;
52180;SDS011;38158;53.338;6.514;2023-09-07T00:47:45;4.90;;;3.35;;
52180;SDS011;38158;53.338;6.514;2023-09-07T00:50:11;7.90;;;3.53;;
52180;SDS011;38158;53.338;6.514;2023-09-07T00:52:42;5.20;;;3.63;;
52180;SDS011;38158;53.338;6.514;2023-09-07T00:55:08;4.47;;;3.15;;
52180;SDS011;38158;53.338;6.514;2023-09-07T00:57:35;4.40;;;2.88;;
52180;SDS011;38158;53.338;6.514;2023-09-07T01:00:02;6.07;;;3.30;;
52180;SDS011;38158;53.338;6.514;2023-09-07T01:02:31;5.07;;;3.13;;
52180;SDS011;38158;53.338;6.514;2023-09-07T01:04:56;5.30;;;3.20;;
52180;SDS011;38158;53.338;6.514;2023-09-07T01:07:28;6.07;;;3.72;;
52180;SDS011;38158;53.338;6.514;2023-09-07T01:10:05;6.38;;;3.08;;
52180;SDS011;38158;53.338;6.514;2023-09-07T01:12:33;9.15;;;3.75;;
52180;SDS011;38158;53.338;6.514;2023-09-07T01:14:58;5.50;;;3.17;;
52180;SDS011;38158;53.338;6.514;2023-09-07T01:17:24;5.53;;;3.88;;
52180;SDS011;38158;53.338;6.514;2023-09-07T01:19:51;8.10;;;3.40;;
52180;SDS011;38158;53.338;6.514;2023-09-07T01:22:21;7.57;;;3.60;;
52180;SDS011;38158;53.338;6.514;2023-09-07T01:24:50;4.78;;;3.22;;
52180;SDS011;38158;53.338;6.514;2023-09-07T01:27:20;5.45;;;3.30;;
52180;SDS011;38158;53.338;6.514;2023-09-07T01:29:46;7.18;;;4.05;;
52180;SDS011;38158;53.338;6.514;2023-09-07T01:32:11;5.93;;;3.88;;
52180;SDS011;38158;53.338;6.514;2023-09-07T01:34:38;5.80;;;3.47;;
52180;SDS011;38158;53.338;6.514;2023-09-07T01:37:04;8.55;;;3.65;;
52180;SDS011;38158;53.338;6.514;2023-09-07T01:39:30;6.70;;;3.97;;
52180;SDS011;38158;53.338;6.514;2023-09-07T01:41:55;6.97;;;3.95;;
52180;SDS011;38158;53.338;6.514;2023-09-07T01:44:21;6.40;;;4.00;;
52180;SDS011;38158;53.338;6.514;2023-09-07T01:46:46;9.95;;;3.95;;
52180;SDS011;38158;53.338;6.514;2023-09-07T01:49:12;7.88;;;3.90;;
52180;SDS011;38158;53.338;6.514;2023-09-07T01:51:38;6.00;;;4.22;;
52180;SDS011;38158;53.338;6.514;2023-09-07T01:54:03;6.60;;;3.95;;
52180;SDS011;38158;53.338;6.514;2023-09-07T01:56:30;5.97;;;4.00;;
52180;SDS011;38158;53.338;6.514;2023-09-07T01:58:56;5.78;;;4.20;;
52180;SDS011;38158;53.338;6.514;2023-09-07T02:01:25;5.55;;;3.90;;
52180;SDS011;38158;53.338;6.514;2023-09-07T02:03:52;5.43;;;3.85;;
52180;SDS011;38158;53.338;6.514;2023-09-07T02:06:18;8.13;;;4.32;;
52180;SDS011;38158;53.338;6.514;2023-09-07T02:08:44;5.40;;;3.85;;
52180;SDS011;38158;53.338;6.514;2023-09-07T02:11:10;5.68;;;4.10;;
52180;SDS011;38158;53.338;6.514;2023-09-07T02:13:35;6.53;;;3.80;;
52180;SDS011;38158;53.338;6.514;2023-09-07T02:16:05;5.75;;;4.15;;
52180;SDS011;38158;53.338;6.514;2023-09-07T02:18:34;6.57;;;4.60;;
52180;SDS011;38158;53.338;6.514;2023-09-07T02:21:01;5.70;;;3.58;;
52180;SDS011;38158;53.338;6.514;2023-09-07T02:23:27;8.15;;;4.03;;
52180;SDS011;38158;53.338;6.514;2023-09-07T02:25:53;6.15;;;4.50;;
52180;SDS011;38158;53.338;6.514;2023-09-07T02:28:19;6.03;;;4.20;;
52180;SDS011;38158;53.338;6.514;2023-09-07T02:30:45;8.57;;;4.72;;
52180;SDS011;38158;53.338;6.514;2023-09-07T02:33:10;6.63;;;4.43;;
52180;SDS011;38158;53.338;6.514;2023-09-07T02:35:37;6.70;;;5.30;;
52180;SDS011;38158;53.338;6.514;2023-09-07T02:38:02;7.25;;;4.97;;
52180;SDS011;38158;53.338;6.514;2023-09-07T02:40:28;8.00;;;4.80;;
52180;SDS011;38158;53.338;6.514;2023-09-07T02:42:54;7.68;;;4.68;;
52180;SDS011;38158;53.338;6.514;2023-09-07T02:45:20;6.72;;;4.97;;
52180;SDS011;38158;53.338;6.514;2023-09-07T02:47:46;7.28;;;5.45;;
52180;SDS011;38158;53.338;6.514;2023-09-07T02:50:14;6.70;;;4.88;;
52180;SDS011;38158;53.338;6.514;2023-09-07T02:52:41;7.45;;;4.72;;
52180;SDS011;38158;53.338;6.514;2023-09-07T02:55:06;8.95;;;5.53;;
52180;SDS011;38158;53.338;6.514;2023-09-07T02:57:32;7.10;;;4.78;;
52180;SDS011;38158;53.338;6.514;2023-09-07T02:59:59;6.65;;;4.68;;
52180;SDS011;38158;53.338;6.514;2023-09-07T03:02:25;10.80;;;5.70;;
52180;SDS011;38158;53.338;6.514;2023-09-07T03:04:54;7.63;;;5.38;;
52180;SDS011;38158;53.338;6.514;2023-09-07T03:07:20;6.22;;;4.95;;
52180;SDS011;38158;53.338;6.514;2023-09-07T03:09:45;7.97;;;5.03;;
52180;SDS011;38158;53.338;6.514;2023-09-07T03:12:11;7.05;;;5.13;;
52180;SDS011;38158;53.338;6.514;2023-09-07T03:14:37;7.07;;;4.30;;
52180;SDS011;38158;53.338;6.514;2023-09-07T03:17:02;6.07;;;4.40;;
52180;SDS011;38158;53.338;6.514;2023-09-07T03:19:28;6.82;;;4.82;;
52180;SDS011;38158;53.338;6.514;2023-09-07T03:21:54;6.88;;;4.85;;
52180;SDS011;38158;53.338;6.514;2023-09-07T03:24:20;11.43;;;6.35;;
52180;SDS011;38158;53.338;6.514;2023-09-07T03:26:45;6.07;;;4.57;;
52180;SDS011;38158;53.338;6.514;2023-09-07T03:29:11;7.35;;;4.28;;
52180;SDS011;38158;53.338;6.514;2023-09-07T03:31:37;6.32;;;4.38;;
52180;SDS011;38158;53.338;6.514;2023-09-07T03:34:03;7.13;;;4.80;;
52180;SDS011;38158;53.338;6.514;2023-09-07T03:36:28;7.68;;;5.13;;
52180;SDS011;38158;53.338;6.514;2023-09-07T03:38:54;7.78;;;4.82;;
52180;SDS011;38158;53.338;6.514;2023-09-07T03:41:20;10.27;;;5.82;;
52180;SDS011;38158;53.338;6.514;2023-09-07T03:43:45;8.90;;;5.50;;
52180;SDS011;38158;53.338;6.514;2023-09-07T03:46:11;8.75;;;5.53;;
52180;SDS011;38158;53.338;6.514;2023-09-07T03:48:36;9.23;;;5.80;;
52180;SDS011;38158;53.338;6.514;2023-09-07T03:51:06;7.93;;;5.78;;
52180;SDS011;38158;53.338;6.514;2023-09-07T03:53:32;8.15;;;6.45;;
52180;SDS011;38158;53.338;6.514;2023-09-07T03:55:57;8.48;;;6.15;;
52180;SDS011;38158;53.338;6.514;2023-09-07T03:58:23;8.38;;;6.25;;
52180;SDS011;38158;53.338;6.514;2023-09-07T04:00:50;8.18;;;5.70;;
52180;SDS011;38158;53.338;6.514;2023-09-07T04:03:15;8.35;;;6.10;;
52180;SDS011;38158;53.338;6.514;2023-09-07T04:05:41;8.70;;;6.43;;
52180;SDS011;38158;53.338;6.514;2023-09-07T04:08:06;11.30;;;6.28;;
52180;SDS011;38158;53.338;6.514;2023-09-07T04:10:32;7.55;;;5.97;;
52180;SDS011;38158;53.338;6.514;2023-09-07T04:13:01;9.60;;;5.25;;
52180;SDS011;38158;53.338;6.514;2023-09-07T04:15:27;16.58;;;6.00;;
52180;SDS011;38158;53.338;6.514;2023-09-07T04:17:53;8.82;;;6.68;;
52180;SDS011;38158;53.338;6.514;2023-09-07T04:20:20;8.07;;;5.85;;
52180;SDS011;38158;53.338;6.514;2023-09-07T04:22:45;8.13;;;6.00;;
52180;SDS011;38158;53.338;6.514;2023-09-07T04:25:11;8.98;;;6.05;;
52180;SDS011;38158;53.338;6.514;2023-09-07T04:27:37;7.72;;;5.95;;
52180;SDS011;38158;53.338;6.514;2023-09-07T04:30:02;9.77;;;5.88;;
52180;SDS011;38158;53.338;6.514;2023-09-07T04:32:28;8.43;;;5.70;;
52180;SDS011;38158;53.338;6.514;2023-09-07T04:34:57;10.10;;;5.88;;
52180;SDS011;38158;53.338;6.514;2023-09-07T04:37:24;9.68;;;5.70;;
52180;SDS011;38158;53.338;6.514;2023-09-07T04:39:51;9.63;;;6.50;;
52180;SDS011;38158;53.338;6.514;2023-09-07T04:42:20;8.98;;;6.38;;
52180;SDS011;38158;53.338;6.514;2023-09-07T04:44:46;8.63;;;5.93;;
52180;SDS011;38158;53.338;6.514;2023-09-07T04:47:12;8.90;;;5.55;;
52180;SDS011;38158;53.338;6.514;2023-09-07T04:49:39;7.97;;;6.03;;
52180;SDS011;38158;53.338;6.514;2023-09-07T04:52:04;7.82;;;5.97;;
52180;SDS011;38158;53.338;6.514;2023-09-07T04:54:30;7.30;;;5.97;;
52180;SDS011;38158;53.338;6.514;2023-09-07T04:56:56;8.30;;;6.45;;
52180;SDS011;38158;53.338;6.514;2023-09-07T04:59:21;6.45;;;5.43;;
52180;SDS011;38158;53.338;6.514;2023-09-07T05:01:47;10.52;;;6.22;;
52180;SDS011;38158;53.338;6.514;2023-09-07T05:04:13;8.38;;;6.20;;
52180;SDS011;38158;53.338;6.514;2023-09-07T05:06:39;7.60;;;5.38;;
52180;SDS011;38158;53.338;6.514;2023-09-07T05:09:06;8.75;;;6.20;;
52180;SDS011;38158;53.338;6.514;2023-09-07T05:11:32;11.38;;;6.30;;
52180;SDS011;38158;53.338;6.514;2023-09-07T05:14:01;9.48;;;6.35;;
52180;SDS011;38158;53.338;6.514;2023-09-07T05:16:27;14.45;;;6.75;;
52180;SDS011;38158;53.338;6.514;2023-09-07T05:18:53;7.57;;;6.05;;
52180;SDS011;38158;53.338;6.514;2023-09-07T05:21:19;8.73;;;5.95;;
52180;SDS011;38158;53.338;6.514;2023-09-07T05:23:46;8.65;;;6.85;;
52180;SDS011;38158;53.338;6.514;2023-09-07T05:26:11;8.38;;;6.13;;
52180;SDS011;38158;53.338;6.514;2023-09-07T05:28:39;8.82;;;6.43;;
52180;SDS011;38158;53.338;6.514;2023-09-07T05:31:05;11.43;;;6.18;;
52180;SDS011;38158;53.338;6.514;2023-09-07T05:33:31;7.43;;;5.90;;
52180;SDS011;38158;53.338;6.514;2023-09-07T05:35:56;10.52;;;6.78;;
52180;SDS011;38158;53.338;6.514;2023-09-07T05:38:22;8.40;;;6.35;;
52180;SDS011;38158;53.338;6.514;2023-09-07T05:40:48;8.05;;;6.00;;
52180;SDS011;38158;53.338;6.514;2023-09-07T05:43:15;7.15;;;5.72;;
52180;SDS011;38158;53.338;6.514;2023-09-07T05:45:41;10.82;;;6.13;;
52180;SDS011;38158;53.338;6.514;2023-09-07T05:48:07;10.45;;;6.45;;
52180;SDS011;38158;53.338;6.514;2023-09-07T05:50:34;7.75;;;6.13;;
52180;SDS011;38158;53.338;6.514;2023-09-07T05:53:01;8.15;;;6.10;;
52180;SDS011;38158;53.338;6.514;2023-09-07T05:55:27;8.68;;;6.07;;
52180;SDS011;38158;53.338;6.514;2023-09-07T05:57:56;13.93;;;5.90;;
52180;SDS011;38158;53.338;6.514;2023-09-07T06:00:22;7.63;;;5.90;;
52180;SDS011;38158;53.338;6.514;2023-09-07T06:02:48;9.77;;;6.38;;
52180;SDS011;38158;53.338;6.514;2023-09-07T06:05:14;8.32;;;5.95;;
52180;SDS011;38158;53.338;6.514;2023-09-07T06:07:41;9.50;;;6.85;;
52180;SDS011;38158;53.338;6.514;2023-09-07T06:10:07;7.82;;;5.65;;
52180;SDS011;38158;53.338;6.514;2023-09-07T06:12:33;10.60;;;6.72;;
52180;SDS011;38158;53.338;6.514;2023-09-07T06:14:59;9.90;;;6.00;;
52180;SDS011;38158;53.338;6.514;2023-09-07T06:17:26;11.77;;;5.72;;
52180;SDS011;38158;53.338;6.514;2023-09-07T06:19:54;9.83;;;6.80;;
52180;SDS011;38158;53.338;6.514;2023-09-07T06:22:19;8.73;;;6.10;;
52180;SDS011;38158;53.338;6.514;2023-09-07T06:24:45;9.02;;;6.20;;
52180;SDS011;38158;53.338;6.514;2023-09-07T06:27:11;8.77;;;5.68;;
52180;SDS011;38158;53.338;6.514;2023-09-07T06:29:36;13.68;;;5.88;;
52180;SDS011;38158;53.338;6.514;2023-09-07T06:32:02;10.05;;;5.72;;
52180;SDS011;38158;53.338;6.514;2023-09-07T06:34:28;9.88;;;6.10;;
52180;SDS011;38158;53.338;6.514;2023-09-07T06:36:54;9.63;;;6.18;;
52180;SDS011;38158;53.338;6.514;2023-09-07T06:39:19;10.10;;;5.90;;
52180;SDS011;38158;53.338;6.514;2023-09-07T06:41:45;9.15;;;5.78;;
52180;SDS011;38158;53.338;6.514;2023-09-07T06:44:11;9.23;;;6.40;;
52180;SDS011;38158;53.338;6.514;2023-09-07T06:46:37;7.88;;;6.03;;
52180;SDS011;38158;53.338;6.514;2023-09-07T06:49:03;10.30;;;6.20;;
52180;SDS011;38158;53.338;6.514;2023-09-07T06:51:30;8.25;;;5.75;;
52180;SDS011;38158;53.338;6.514;2023-09-07T06:53:56;8.45;;;5.60;;
52180;SDS011;38158;53.338;6.514;2023-09-07T06:56:21;8.30;;;5.72;;
52180;SDS011;38158;53.338;6.514;2023-09-07T06:58:47;6.85;;;5.28;;
52180;SDS011;38158;53.338;6.514;2023-09-07T07:01:13;8.93;;;5.20;;
52180;SDS011;38158;53.338;6.514;2023-09-07T07:03:39;6.53;;;4.85;;
52180;SDS011;38158;53.338;6.514;2023-09-07T07:06:04;9.57;;;5.40;;
52180;SDS011;38158;53.338;6.514;2023-09-07T07:08:30;8.10;;;5.75;;
52180;SDS011;38158;53.338;6.514;2023-09-07T07:10:56;8.55;;;5.43;;
52180;SDS011;38158;53.338;6.514;2023-09-07T07:13:21;8.77;;;5.78;;
52180;SDS011;38158;53.338;6.514;2023-09-07T07:15:47;6.60;;;4.90;;
52180;SDS011;38158;53.338;6.514;2023-09-07T07:18:13;7.90;;;5.38;;
52180;SDS011;38158;53.338;6.514;2023-09-07T07:20:39;9.05;;;5.43;;
52180;SDS011;38158;53.338;6.514;2023-09-07T07:23:06;11.98;;;5.35;;
52180;SDS011;38158;53.338;6.514;2023-09-07T07:25:33;10.50;;;5.43;;
52180;SDS011;38158;53.338;6.514;2023-09-07T07:27:59;6.70;;;5.40;;
52180;SDS011;38158;53.338;6.514;2023-09-07T07:30:28;10.68;;;5.68;;
52180;SDS011;38158;53.338;6.514;2023-09-07T07:32:55;7.32;;;5.47;;
52180;SDS011;38158;53.338;6.514;2023-09-07T07:35:21;8.57;;;5.40;;
52180;SDS011;38158;53.338;6.514;2023-09-07T07:37:46;7.90;;;4.50;;
52180;SDS011;38158;53.338;6.514;2023-09-07T07:40:12;7.13;;;4.78;;
52180;SDS011;38158;53.338;6.514;2023-09-07T07:42:38;7.78;;;5.32;;
52180;SDS011;38158;53.338;6.514;2023-09-07T07:45:03;7.03;;;4.55;;
52180;SDS011;38158;53.338;6.514;2023-09-07T07:47:29;10.38;;;4.78;;
52180;SDS011;38158;53.338;6.514;2023-09-07T07:49:55;7.05;;;5.28;;
52180;SDS011;38158;53.338;6.514;2023-09-07T07:52:21;7.03;;;4.78;;
52180;SDS011;38158;53.338;6.514;2023-09-07T07:54:47;7.28;;;4.72;;
52180;SDS011;38158;53.338;6.514;2023-09-07T07:57:12;8.30;;;5.00;;
52180;SDS011;38158;53.338;6.514;2023-09-07T07:59:38;7.03;;;4.47;;
52180;SDS011;38158;53.338;6.514;2023-09-07T08:02:04;6.88;;;4.28;;
52180;SDS011;38158;53.338;6.514;2023-09-07T08:06:57;7.18;;;3.65;;
52180;SDS011;38158;53.338;6.514;2023-09-07T08:09:28;7.88;;;4.25;;
52180;SDS011;38158;53.338;6.514;2023-09-07T08:11:55;6.70;;;4.20;;
52180;SDS011;38158;53.338;6.514;2023-09-07T08:14:21;6.97;;;3.80;;
52180;SDS011;38158;53.338;6.514;2023-09-07T08:16:47;6.85;;;3.75;;
52180;SDS011;38158;53.338;6.514;2023-09-07T08:19:13;9.90;;;4.60;;
52180;SDS011;38158;53.338;6.514;2023-09-07T08:21:39;6.90;;;4.20;;
52180;SDS011;38158;53.338;6.514;2023-09-07T08:24:07;8.68;;;3.95;;
52180;SDS011;38158;53.338;6.514;2023-09-07T08:26:35;5.88;;;4.05;;
52180;SDS011;38158;53.338;6.514;2023-09-07T08:29:01;8.27;;;4.13;;
52180;SDS011;38158;53.338;6.514;2023-09-07T08:31:33;5.95;;;3.72;;
52180;SDS011;38158;53.338;6.514;2023-09-07T08:34:04;6.22;;;3.75;;
52180;SDS011;38158;53.338;6.514;2023-09-07T08:36:31;5.00;;;3.63;;
52180;SDS011;38158;53.338;6.514;2023-09-07T08:39:01;5.93;;;3.80;;
52180;SDS011;38158;53.338;6.514;2023-09-07T08:41:38;6.68;;;3.97;;
52180;SDS011;38158;53.338;6.514;2023-09-07T08:44:09;6.70;;;4.07;;
52180;SDS011;38158;53.338;6.514;2023-09-07T08:46:36;8.88;;;4.40;;
52180;SDS011;38158;53.338;6.514;2023-09-07T08:49:03;4.68;;;3.55;;
52180;SDS011;38158;53.338;6.514;2023-09-07T08:51:29;6.00;;;3.83;;
52180;SDS011;38158;53.338;6.514;2023-09-07T08:53:56;5.28;;;3.42;;
52180;SDS011;38158;53.338;6.514;2023-09-07T08:56:23;5.03;;;3.17;;
52180;SDS011;38158;53.338;6.514;2023-09-07T09:01:15;7.18;;;3.42;;
52180;SDS011;38158;53.338;6.514;2023-09-07T09:03:42;8.18;;;3.65;;
52180;SDS011;38158;53.338;6.514;2023-09-07T09:06:08;6.85;;;3.65;;
52180;SDS011;38158;53.338;6.514;2023-09-07T09:08:44;5.53;;;3.88;;
52180;SDS011;38158;53.338;6.514;2023-09-07T09:11:14;5.85;;;3.60;;
52180;SDS011;38158;53.338;6.514;2023-09-07T09:13:44;5.68;;;3.60;;
52180;SDS011;38158;53.338;6.514;2023-09-07T09:16:10;7.70;;;3.67;;
52180;SDS011;38158;53.338;6.514;2023-09-07T09:18:38;6.40;;;3.60;;
52180;SDS011;38158;53.338;6.514;2023-09-07T09:21:13;4.90;;;3.38;;
52180;SDS011;38158;53.338;6.514;2023-09-07T09:23:39;7.53;;;4.15;;
52180;SDS011;38158;53.338;6.514;2023-09-07T09:26:06;7.50;;;4.43;;
52180;SDS011;38158;53.338;6.514;2023-09-07T09:28:32;8.10;;;4.17;;
52180;SDS011;38158;53.338;6.514;2023-09-07T09:30:58;8.98;;;4.65;;
52180;SDS011;38158;53.338;6.514;2023-09-07T09:33:25;6.15;;;3.90;;
52180;SDS011;38158;53.338;6.514;2023-09-07T09:35:54;5.67;;;3.60;;
52180;SDS011;38158;53.338;6.514;2023-09-07T09:38:20;6.22;;;4.20;;
52180;SDS011;38158;53.338;6.514;2023-09-07T09:40:46;7.03;;;3.60;;
52180;SDS011;38158;53.338;6.514;2023-09-07T09:43:14;5.30;;;3.70;;
52180;SDS011;38158;53.338;6.514;2023-09-07T09:45:41;6.25;;;3.50;;
52180;SDS011;38158;53.338;6.514;2023-09-07T09:48:06;8.47;;;4.30;;
52180;SDS011;38158;53.338;6.514;2023-09-07T09:50:33;6.05;;;3.80;;
52180;SDS011;38158;53.338;6.514;2023-09-07T09:53:06;9.93;;;3.97;;
52180;SDS011;38158;53.338;6.514;2023-09-07T09:55:32;6.53;;;3.88;;
52180;SDS011;38158;53.338;6.514;2023-09-07T09:57:58;5.93;;;4.20;;
52180;SDS011;38158;53.338;6.514;2023-09-07T10:00:24;4.87;;;3.47;;
52180;SDS011;38158;53.338;6.514;2023-09-07T10:02:55;6.88;;;3.97;;
52180;SDS011;38158;53.338;6.514;2023-09-07T10:05:29;6.88;;;3.63;;
52180;SDS011;38158;53.338;6.514;2023-09-07T10:07:59;7.10;;;3.63;;
52180;SDS011;38158;53.338;6.514;2023-09-07T10:10:31;6.57;;;3.70;;
52180;SDS011;38158;53.338;6.514;2023-09-07T10:13:00;6.00;;;3.72;;
52180;SDS011;38158;53.338;6.514;2023-09-07T10:15:26;5.47;;;3.73;;
52180;SDS011;38158;53.338;6.514;2023-09-07T10:18:02;6.68;;;3.47;;
52180;SDS011;38158;53.338;6.514;2023-09-07T10:23:17;7.57;;;3.85;;
52180;SDS011;38158;53.338;6.514;2023-09-07T10:25:46;9.15;;;4.13;;
52180;SDS011;38158;53.338;6.514;2023-09-07T10:28:17;6.15;;;3.40;;
52180;SDS011;38158;53.338;6.514;2023-09-07T10:31:03;4.68;;;3.25;;
52180;SDS011;38158;53.338;6.514;2023-09-07T10:33:38;9.27;;;3.55;;
52180;SDS011;38158;53.338;6.514;2023-09-07T10:36:04;5.78;;;3.60;;
52180;SDS011;38158;53.338;6.514;2023-09-07T10:38:34;5.82;;;3.60;;
52180;SDS011;38158;53.338;6.514;2023-09-07T10:41:01;5.15;;;3.13;;
52180;SDS011;38158;53.338;6.514;2023-09-07T10:43:29;4.65;;;3.30;;
52180;SDS011;38158;53.338;6.514;2023-09-07T10:45:57;5.32;;;3.08;;
52180;SDS011;38158;53.338;6.514;2023-09-07T10:48:24;5.95;;;3.58;;
52180;SDS011;38158;53.338;6.514;2023-09-07T10:50:50;7.55;;;3.38;;
52180;SDS011;38158;53.338;6.514;2023-09-07T10:53:24;5.90;;;3.60;;
52180;SDS011;38158;53.338;6.514;2023-09-07T10:55:52;9.20;;;3.60;;
52180;SDS011;38158;53.338;6.514;2023-09-07T10:58:29;5.85;;;3.33;;
52180;SDS011;38158;53.338;6.514;2023-09-07T11:00:57;5.80;;;3.42;;
52180;SDS011;38158;53.338;6.514;2023-09-07T11:03:26;7.10;;;3.50;;
52180;SDS011;38158;53.338;6.514;2023-09-07T11:06:15;4.47;;;3.13;;
52180;SDS011;38158;53.338;6.514;2023-09-07T11:08:44;10.00;;;3.70;;
52180;SDS011;38158;53.338;6.514;2023-09-07T11:11:11;6.18;;;3.30;;
52180;SDS011;38158;53.338;6.514;2023-09-07T11:13:38;5.25;;;3.40;;
52180;SDS011;38158;53.338;6.514;2023-09-07T11:16:06;6.30;;;3.53;;
52180;SDS011;38158;53.338;6.514;2023-09-07T11:18:33;5.70;;;2.92;;
52180;SDS011;38158;53.338;6.514;2023-09-07T11:21:01;3.97;;;2.90;;
52180;SDS011;38158;53.338;6.514;2023-09-07T11:23:29;5.63;;;2.83;;
52180;SDS011;38158;53.338;6.514;2023-09-07T11:26:07;6.82;;;3.00;;
52180;SDS011;38158;53.338;6.514;2023-09-07T11:28:33;10.68;;;3.50;;
52180;SDS011;38158;53.338;6.514;2023-09-07T11:30:59;4.80;;;3.05;;
52180;SDS011;38158;53.338;6.514;2023-09-07T11:33:25;7.60;;;2.72;;
52180;SDS011;38158;53.338;6.514;2023-09-07T11:35:51;5.85;;;2.70;;
52180;SDS011;38158;53.338;6.514;2023-09-07T11:38:19;5.20;;;2.80;;
52180;SDS011;38158;53.338;6.514;2023-09-07T11:40:45;5.47;;;2.85;;
52180;SDS011;38158;53.338;6.514;2023-09-07T11:43:12;6.77;;;3.13;;
52180;SDS011;38158;53.338;6.514;2023-09-07T11:45:42;6.00;;;2.70;;
52180;SDS011;38158;53.338;6.514;2023-09-07T11:48:09;4.45;;;2.83;;
52180;SDS011;38158;53.338;6.514;2023-09-07T11:50:35;9.45;;;2.78;;
52180;SDS011;38158;53.338;6.514;2023-09-07T11:53:02;5.75;;;3.00;;
52180;SDS011;38158;53.338;6.514;2023-09-07T11:55:28;4.80;;;2.83;;
52180;SDS011;38158;53.338;6.514;2023-09-07T11:57:53;5.67;;;3.00;;
52180;SDS011;38158;53.338;6.514;2023-09-07T12:00:19;4.87;;;3.00;;
52180;SDS011;38158;53.338;6.514;2023-09-07T12:02:45;4.80;;;2.50;;
52180;SDS011;38158;53.338;6.514;2023-09-07T12:05:11;6.33;;;3.10;;
52180;SDS011;38158;53.338;6.514;2023-09-07T12:07:39;5.10;;;3.22;;
52180;SDS011;38158;53.338;6.514;2023-09-07T12:10:05;5.50;;;3.10;;
52180;SDS011;38158;53.338;6.514;2023-09-07T12:12:36;4.63;;;3.05;;
52180;SDS011;38158;53.338;6.514;2023-09-07T12:15:02;6.97;;;3.33;;
52180;SDS011;38158;53.338;6.514;2023-09-07T12:17:29;6.13;;;3.20;;
52180;SDS011;38158;53.338;6.514;2023-09-07T12:19:55;6.53;;;3.17;;
52180;SDS011;38158;53.338;6.514;2023-09-07T12:22:21;5.43;;;3.10;;
52180;SDS011;38158;53.338;6.514;2023-09-07T12:24:46;6.80;;;3.47;;
52180;SDS011;38158;53.338;6.514;2023-09-07T12:27:12;4.10;;;2.70;;
52180;SDS011;38158;53.338;6.514;2023-09-07T12:29:38;5.10;;;2.97;;
52180;SDS011;38158;53.338;6.514;2023-09-07T12:32:04;5.17;;;3.43;;
52180;SDS011;38158;53.338;6.514;2023-09-07T12:34:30;6.47;;;3.40;;
52180;SDS011;38158;53.338;6.514;2023-09-07T12:36:55;4.73;;;3.10;;
52180;SDS011;38158;53.338;6.514;2023-09-07T12:39:21;6.00;;;3.03;;
52180;SDS011;38158;53.338;6.514;2023-09-07T12:41:46;11.73;;;2.77;;
52180;SDS011;38158;53.338;6.514;2023-09-07T12:44:12;6.77;;;3.00;;
52180;SDS011;38158;53.338;6.514;2023-09-07T12:46:38;4.97;;;2.97;;
52180;SDS011;38158;53.338;6.514;2023-09-07T12:49:04;4.93;;;2.77;;
52180;SDS011;38158;53.338;6.514;2023-09-07T12:51:30;5.40;;;3.30;;
52180;SDS011;38158;53.338;6.514;2023-09-07T12:53:56;6.40;;;3.58;;
52180;SDS011;38158;53.338;6.514;2023-09-07T12:56:21;5.40;;;2.70;;
52180;SDS011;38158;53.338;6.514;2023-09-07T12:58:47;5.90;;;3.20;;
52180;SDS011;38158;53.338;6.514;2023-09-07T13:01:14;12.32;;;3.53;;
52180;SDS011;38158;53.338;6.514;2023-09-07T13:03:40;4.68;;;3.33;;
52180;SDS011;38158;53.338;6.514;2023-09-07T13:06:06;4.88;;;3.25;;
52180;SDS011;38158;53.338;6.514;2023-09-07T13:08:32;5.93;;;3.37;;
52180;SDS011;38158;53.338;6.514;2023-09-07T13:10:58;4.88;;;3.10;;
52180;SDS011;38158;53.338;6.514;2023-09-07T13:13:24;6.27;;;2.73;;
52180;SDS011;38158;53.338;6.514;2023-09-07T13:15:54;4.18;;;2.78;;
52180;SDS011;38158;53.338;6.514;2023-09-07T13:18:21;5.00;;;3.00;;
52180;SDS011;38158;53.338;6.514;2023-09-07T13:20:47;5.15;;;3.10;;
52180;SDS011;38158;53.338;6.514;2023-09-07T13:23:15;5.78;;;3.10;;
52180;SDS011;38158;53.338;6.514;2023-09-07T13:25:41;5.70;;;2.88;;
52180;SDS011;38158;53.338;6.514;2023-09-07T13:28:06;6.07;;;3.17;;
52180;SDS011;38158;53.338;6.514;2023-09-07T13:30:32;5.70;;;3.50;;
52180;SDS011;38158;53.338;6.514;2023-09-07T13:32:58;7.10;;;3.30;;
52180;SDS011;38158;53.338;6.514;2023-09-07T13:37:50;3.67;;;2.58;;
52180;SDS011;38158;53.338;6.514;2023-09-07T13:40:16;7.37;;;3.23;;
52180;SDS011;38158;53.338;6.514;2023-09-07T13:42:44;4.80;;;3.20;;
52180;SDS011;38158;53.338;6.514;2023-09-07T13:45:10;5.10;;;3.38;;
52180;SDS011;38158;53.338;6.514;2023-09-07T13:47:36;5.23;;;3.13;;
52180;SDS011;38158;53.338;6.514;2023-09-07T13:50:03;7.85;;;3.05;;
52180;SDS011;38158;53.338;6.514;2023-09-07T13:52:29;4.82;;;2.90;;
52180;SDS011;38158;53.338;6.514;2023-09-07T13:54:54;6.87;;;3.20;;
52180;SDS011;38158;53.338;6.514;2023-09-07T13:57:20;6.03;;;3.50;;
52180;SDS011;38158;53.338;6.514;2023-09-07T13:59:46;5.70;;;2.90;;
52180;SDS011;38158;53.338;6.514;2023-09-07T14:02:11;4.37;;;3.27;;
52180;SDS011;38158;53.338;6.514;2023-09-07T14:04:37;6.13;;;3.00;;
52180;SDS011;38158;53.338;6.514;2023-09-07T14:07:03;10.03;;;3.33;;
52180;SDS011;38158;53.338;6.514;2023-09-07T14:09:28;5.57;;;3.20;;
52180;SDS011;38158;53.338;6.514;2023-09-07T14:11:54;5.17;;;3.10;;
52180;SDS011;38158;53.338;6.514;2023-09-07T14:14:20;3.90;;;2.75;;
52180;SDS011;38158;53.338;6.514;2023-09-07T14:16:46;6.23;;;2.87;;
52180;SDS011;38158;53.338;6.514;2023-09-07T14:19:12;5.70;;;3.00;;
52180;SDS011;38158;53.338;6.514;2023-09-07T14:21:38;5.20;;;2.90;;
52180;SDS011;38158;53.338;6.514;2023-09-07T14:24:04;9.60;;;3.30;;
52180;SDS011;38158;53.338;6.514;2023-09-07T14:26:30;5.45;;;3.00;;
52180;SDS011;38158;53.338;6.514;2023-09-07T14:28:55;5.27;;;3.00;;
52180;SDS011;38158;53.338;6.514;2023-09-07T14:31:21;5.70;;;3.20;;
52180;SDS011;38158;53.338;6.514;2023-09-07T14:33:46;5.43;;;2.93;;
52180;SDS011;38158;53.338;6.514;2023-09-07T14:38:41;6.15;;;2.83;;
52180;SDS011;38158;53.338;6.514;2023-09-07T14:41:10;4.95;;;2.85;;
52180;SDS011;38158;53.338;6.514;2023-09-07T14:43:42;7.47;;;3.00;;
52180;SDS011;38158;53.338;6.514;2023-09-07T14:46:08;5.30;;;3.30;;
52180;SDS011;38158;53.338;6.514;2023-09-07T14:48:34;6.53;;;3.20;;
52180;SDS011;38158;53.338;6.514;2023-09-07T14:50:59;5.37;;;2.90;;
52180;SDS011;38158;53.338;6.514;2023-09-07T14:53:25;7.83;;;3.10;;
52180;SDS011;38158;53.338;6.514;2023-09-07T14:55:51;9.88;;;3.35;;